sensor_id;sensor_type;location;lat;lon;timestamp;P1;durP1;ratioP1;P2;durP2;ratioP2
1154;SDS011;566;48.414;9.118;2023-02-25T00:00:43;15.25;;;10.63;;
1154;SDS011;566;48.414;9.118;2023-02-25T00:03:09;20.45;;;13.07;;
1154;SDS011;566;48.414;9.118;2023-02-25T00:05:38;20.13;;;13.13;;
1154;SDS011;566;48.414;9.118;2023-02-25T00:08:04;14.00;;;9.85;;
1154;SDS011;566;48.414;9.118;2023-02-25T00:10:30;14.10;;;10.00;;
1154;SDS011;566;48.414;9.118;2023-02-25T00:12:57;18.73;;;12.93;;
1154;SDS011;566;48.414;9.118;2023-02-25T00:15:23;16.48;;;10.98;;
1154;SDS011;566;48.414;9.118;2023-02-25T00:17:48;19.52;;;13.20;;
1154;SDS011;566;48.414;9.118;2023-02-25T00:20:14;18.83;;;12.60;;
1154;SDS011;566;48.414;9.118;2023-02-25T00:22:41;20.05;;;13.55;;
1154;SDS011;566;48.414;9.118;2023-02-25T00:25:07;24.95;;;15.27;;
1154;SDS011;566;48.414;9.118;2023-02-25T00:27:33;26.77;;;14.38;;
1154;SDS011;566;48.414;9.118;2023-02-25T00:29:59;20.75;;;13.73;;
1154;SDS011;566;48.414;9.118;2023-02-25T00:32:25;21.95;;;13.13;;
1154;SDS011;566;48.414;9.118;2023-02-25T00:34:51;27.42;;;16.35;;
1154;SDS011;566;48.414;9.118;2023-02-25T00:37:19;23.50;;;15.35;;
1154;SDS011;566;48.414;9.118;2023-02-25T00:39:45;23.65;;;14.15;;
1154;SDS011;566;48.414;9.118;2023-02-25T00:42:14;20.35;;;13.27;;
1154;SDS011;566;48.414;9.118;2023-02-25T00:44:44;22.83;;;13.80;;
1154;SDS011;566;48.414;9.118;2023-02-25T00:47:11;19.00;;;12.40;;
1154;SDS011;566;48.414;9.118;2023-02-25T00:49:38;22.75;;;13.85;;
1154;SDS011;566;48.414;9.118;2023-02-25T00:52:04;21.42;;;13.65;;
1154;SDS011;566;48.414;9.118;2023-02-25T00:54:31;25.02;;;15.15;;
1154;SDS011;566;48.414;9.118;2023-02-25T00:56:58;27.42;;;15.52;;
1154;SDS011;566;48.414;9.118;2023-02-25T00:59:23;27.73;;;15.27;;
1154;SDS011;566;48.414;9.118;2023-02-25T01:01:49;29.52;;;14.88;;
1154;SDS011;566;48.414;9.118;2023-02-25T01:04:14;31.27;;;15.70;;
1154;SDS011;566;48.414;9.118;2023-02-25T01:06:40;31.10;;;15.57;;
1154;SDS011;566;48.414;9.118;2023-02-25T01:09:06;33.55;;;17.52;;
1154;SDS011;566;48.414;9.118;2023-02-25T01:11:38;35.70;;;17.33;;
1154;SDS011;566;48.414;9.118;2023-02-25T01:14:06;31.00;;;16.95;;
1154;SDS011;566;48.414;9.118;2023-02-25T01:16:36;34.63;;;16.08;;
1154;SDS011;566;48.414;9.118;2023-02-25T01:19:03;32.08;;;16.83;;
1154;SDS011;566;48.414;9.118;2023-02-25T01:21:33;35.45;;;17.23;;
1154;SDS011;566;48.414;9.118;2023-02-25T01:24:03;36.05;;;16.80;;
1154;SDS011;566;48.414;9.118;2023-02-25T01:26:35;36.47;;;16.40;;
1154;SDS011;566;48.414;9.118;2023-02-25T01:29:10;37.13;;;15.95;;
1154;SDS011;566;48.414;9.118;2023-02-25T01:31:57;46.20;;;19.05;;
1154;SDS011;566;48.414;9.118;2023-02-25T01:34:25;36.35;;;17.65;;
1154;SDS011;566;48.414;9.118;2023-02-25T01:36:51;36.38;;;18.02;;
1154;SDS011;566;48.414;9.118;2023-02-25T01:39:18;29.35;;;15.98;;
1154;SDS011;566;48.414;9.118;2023-02-25T01:41:44;39.03;;;18.50;;
1154;SDS011;566;48.414;9.118;2023-02-25T01:44:16;35.88;;;17.33;;
1154;SDS011;566;48.414;9.118;2023-02-25T01:46:52;40.15;;;18.00;;
1154;SDS011;566;48.414;9.118;2023-02-25T01:49:24;41.88;;;18.55;;
1154;SDS011;566;48.414;9.118;2023-02-25T01:52:00;40.38;;;17.95;;
1154;SDS011;566;48.414;9.118;2023-02-25T01:54:28;42.67;;;18.45;;
1154;SDS011;566;48.414;9.118;2023-02-25T01:56:54;32.65;;;16.08;;
1154;SDS011;566;48.414;9.118;2023-02-25T01:59:22;32.75;;;17.10;;
1154;SDS011;566;48.414;9.118;2023-02-25T02:01:51;31.30;;;15.25;;
1154;SDS011;566;48.414;9.118;2023-02-25T02:04:17;35.92;;;16.85;;
1154;SDS011;566;48.414;9.118;2023-02-25T02:06:45;30.35;;;16.10;;
1154;SDS011;566;48.414;9.118;2023-02-25T02:09:13;42.65;;;18.88;;
1154;SDS011;566;48.414;9.118;2023-02-25T02:11:41;40.80;;;18.02;;
1154;SDS011;566;48.414;9.118;2023-02-25T02:14:08;35.60;;;16.42;;
1154;SDS011;566;48.414;9.118;2023-02-25T02:19:37;33.00;;;16.35;;
1154;SDS011;566;48.414;9.118;2023-02-25T02:27:45;37.13;;;17.50;;
1154;SDS011;566;48.414;9.118;2023-02-25T02:30:24;32.30;;;16.23;;
1154;SDS011;566;48.414;9.118;2023-02-25T02:35:44;35.25;;;16.75;;
1154;SDS011;566;48.414;9.118;2023-02-25T02:39:02;32.15;;;16.60;;
1154;SDS011;566;48.414;9.118;2023-02-25T02:41:24;27.50;;;16.23;;
1154;SDS011;566;48.414;9.118;2023-02-25T02:44:01;34.85;;;19.02;;
1154;SDS011;566;48.414;9.118;2023-02-25T02:46:35;47.45;;;22.05;;
1154;SDS011;566;48.414;9.118;2023-02-25T02:51:45;42.95;;;21.67;;
1154;SDS011;566;48.414;9.118;2023-02-25T02:54:20;46.95;;;22.40;;
1154;SDS011;566;48.414;9.118;2023-02-25T02:56:49;51.30;;;22.40;;
1154;SDS011;566;48.414;9.118;2023-02-25T02:59:25;43.80;;;21.20;;
1154;SDS011;566;48.414;9.118;2023-02-25T03:01:55;50.10;;;21.00;;
1154;SDS011;566;48.414;9.118;2023-02-25T03:04:31;46.92;;;21.40;;
1154;SDS011;566;48.414;9.118;2023-02-25T03:07:09;40.83;;;19.65;;
1154;SDS011;566;48.414;9.118;2023-02-25T03:09:44;36.95;;;19.15;;
1154;SDS011;566;48.414;9.118;2023-02-25T03:12:17;46.17;;;22.33;;
1154;SDS011;566;48.414;9.118;2023-02-25T03:14:43;40.00;;;19.48;;
1154;SDS011;566;48.414;9.118;2023-02-25T03:17:18;39.50;;;20.90;;
1154;SDS011;566;48.414;9.118;2023-02-25T03:20:06;39.25;;;19.70;;
1154;SDS011;566;48.414;9.118;2023-02-25T03:22:47;44.33;;;22.27;;
1154;SDS011;566;48.414;9.118;2023-02-25T03:25:31;41.97;;;22.13;;
1154;SDS011;566;48.414;9.118;2023-02-25T03:28:03;43.22;;;21.33;;
1154;SDS011;566;48.414;9.118;2023-02-25T03:30:42;41.03;;;20.05;;
1154;SDS011;566;48.414;9.118;2023-02-25T03:33:15;42.65;;;21.75;;
1154;SDS011;566;48.414;9.118;2023-02-25T03:35:54;45.55;;;22.58;;
1154;SDS011;566;48.414;9.118;2023-02-25T03:38:30;35.70;;;20.77;;
1154;SDS011;566;48.414;9.118;2023-02-25T03:40:57;39.20;;;21.38;;
1154;SDS011;566;48.414;9.118;2023-02-25T03:43:29;38.58;;;20.17;;
1154;SDS011;566;48.414;9.118;2023-02-25T03:46:02;40.25;;;20.73;;
1154;SDS011;566;48.414;9.118;2023-02-25T03:48:29;43.85;;;21.95;;
1154;SDS011;566;48.414;9.118;2023-02-25T03:50:59;36.17;;;20.70;;
1154;SDS011;566;48.414;9.118;2023-02-25T03:53:26;46.83;;;22.80;;
1154;SDS011;566;48.414;9.118;2023-02-25T03:55:53;40.15;;;20.58;;
1154;SDS011;566;48.414;9.118;2023-02-25T03:58:20;37.05;;;20.23;;
1154;SDS011;566;48.414;9.118;2023-02-25T04:00:47;35.17;;;17.95;;
1154;SDS011;566;48.414;9.118;2023-02-25T04:03:16;44.90;;;22.38;;
1154;SDS011;566;48.414;9.118;2023-02-25T04:05:42;47.80;;;22.15;;
1154;SDS011;566;48.414;9.118;2023-02-25T04:08:07;39.85;;;21.02;;
1154;SDS011;566;48.414;9.118;2023-02-25T04:10:39;41.50;;;20.52;;
1154;SDS011;566;48.414;9.118;2023-02-25T04:13:14;53.67;;;22.40;;
1154;SDS011;566;48.414;9.118;2023-02-25T04:15:40;33.55;;;17.60;;
1154;SDS011;566;48.414;9.118;2023-02-25T04:18:06;37.05;;;20.60;;
1154;SDS011;566;48.414;9.118;2023-02-25T04:20:32;45.38;;;20.95;;
1154;SDS011;566;48.414;9.118;2023-02-25T04:22:59;43.88;;;21.70;;
1154;SDS011;566;48.414;9.118;2023-02-25T04:25:25;40.00;;;20.17;;
1154;SDS011;566;48.414;9.118;2023-02-25T04:27:51;37.20;;;20.20;;
1154;SDS011;566;48.414;9.118;2023-02-25T04:30:17;36.78;;;18.33;;
1154;SDS011;566;48.414;9.118;2023-02-25T04:32:43;38.67;;;20.77;;
1154;SDS011;566;48.414;9.118;2023-02-25T04:35:12;40.25;;;19.20;;
1154;SDS011;566;48.414;9.118;2023-02-25T04:37:38;38.88;;;18.55;;
1154;SDS011;566;48.414;9.118;2023-02-25T04:40:04;42.25;;;21.15;;
1154;SDS011;566;48.414;9.118;2023-02-25T04:42:35;41.10;;;19.50;;
1154;SDS011;566;48.414;9.118;2023-02-25T04:45:05;32.38;;;18.05;;
1154;SDS011;566;48.414;9.118;2023-02-25T04:47:32;38.85;;;19.17;;
1154;SDS011;566;48.414;9.118;2023-02-25T04:49:58;37.67;;;20.05;;
1154;SDS011;566;48.414;9.118;2023-02-25T04:52:24;28.88;;;16.23;;
1154;SDS011;566;48.414;9.118;2023-02-25T04:54:49;29.83;;;17.20;;
1154;SDS011;566;48.414;9.118;2023-02-25T04:57:15;32.90;;;17.50;;
1154;SDS011;566;48.414;9.118;2023-02-25T04:59:41;36.90;;;17.63;;
1154;SDS011;566;48.414;9.118;2023-02-25T05:02:07;36.75;;;19.50;;
1154;SDS011;566;48.414;9.118;2023-02-25T05:04:33;32.60;;;16.15;;
1154;SDS011;566;48.414;9.118;2023-02-25T05:07:00;33.10;;;16.50;;
1154;SDS011;566;48.414;9.118;2023-02-25T05:09:26;39.08;;;18.35;;
1154;SDS011;566;48.414;9.118;2023-02-25T05:11:51;34.67;;;17.23;;
1154;SDS011;566;48.414;9.118;2023-02-25T05:14:17;32.75;;;17.67;;
1154;SDS011;566;48.414;9.118;2023-02-25T05:16:43;37.65;;;19.17;;
1154;SDS011;566;48.414;9.118;2023-02-25T05:19:16;37.70;;;18.23;;
1154;SDS011;566;48.414;9.118;2023-02-25T05:21:50;38.38;;;19.38;;
1154;SDS011;566;48.414;9.118;2023-02-25T05:24:16;36.65;;;20.33;;
1154;SDS011;566;48.414;9.118;2023-02-25T05:26:42;32.30;;;17.52;;
1154;SDS011;566;48.414;9.118;2023-02-25T05:29:14;37.90;;;19.55;;
1154;SDS011;566;48.414;9.118;2023-02-25T05:31:40;33.65;;;16.60;;
1154;SDS011;566;48.414;9.118;2023-02-25T05:34:09;34.45;;;19.17;;
1154;SDS011;566;48.414;9.118;2023-02-25T05:36:37;47.15;;;22.75;;
1154;SDS011;566;48.414;9.118;2023-02-25T05:39:07;49.08;;;23.48;;
1154;SDS011;566;48.414;9.118;2023-02-25T05:41:36;42.60;;;22.45;;
1154;SDS011;566;48.414;9.118;2023-02-25T05:44:05;47.45;;;23.17;;
1154;SDS011;566;48.414;9.118;2023-02-25T05:46:31;39.70;;;20.98;;
1154;SDS011;566;48.414;9.118;2023-02-25T05:48:57;42.50;;;19.58;;
1154;SDS011;566;48.414;9.118;2023-02-25T05:51:25;43.28;;;19.42;;
1154;SDS011;566;48.414;9.118;2023-02-25T05:53:51;42.92;;;18.83;;
1154;SDS011;566;48.414;9.118;2023-02-25T05:56:18;35.17;;;17.48;;
1154;SDS011;566;48.414;9.118;2023-02-25T05:58:46;32.67;;;17.13;;
1154;SDS011;566;48.414;9.118;2023-02-25T06:01:13;30.40;;;15.48;;
1154;SDS011;566;48.414;9.118;2023-02-25T06:03:42;39.63;;;17.92;;
1154;SDS011;566;48.414;9.118;2023-02-25T06:06:09;31.30;;;14.75;;
1154;SDS011;566;48.414;9.118;2023-02-25T06:08:42;33.38;;;15.98;;
1154;SDS011;566;48.414;9.118;2023-02-25T06:11:08;26.08;;;13.60;;
1154;SDS011;566;48.414;9.118;2023-02-25T06:13:35;24.30;;;11.95;;
1154;SDS011;566;48.414;9.118;2023-02-25T06:16:04;25.83;;;13.07;;
1154;SDS011;566;48.414;9.118;2023-02-25T06:18:33;29.40;;;14.63;;
1154;SDS011;566;48.414;9.118;2023-02-25T06:21:07;23.50;;;11.60;;
1154;SDS011;566;48.414;9.118;2023-02-25T06:23:38;18.30;;;10.13;;
1154;SDS011;566;48.414;9.118;2023-02-25T06:26:06;18.17;;;8.73;;
1154;SDS011;566;48.414;9.118;2023-02-25T06:28:34;19.63;;;10.00;;
1154;SDS011;566;48.414;9.118;2023-02-25T06:31:00;24.65;;;11.40;;
1154;SDS011;566;48.414;9.118;2023-02-25T06:33:25;21.33;;;9.27;;
1154;SDS011;566;48.414;9.118;2023-02-25T06:35:54;20.20;;;10.05;;
1154;SDS011;566;48.414;9.118;2023-02-25T06:38:23;22.00;;;9.80;;
1154;SDS011;566;48.414;9.118;2023-02-25T06:40:48;19.05;;;9.13;;
1154;SDS011;566;48.414;9.118;2023-02-25T06:43:15;14.07;;;7.53;;
1154;SDS011;566;48.414;9.118;2023-02-25T06:45:41;20.23;;;8.40;;
1154;SDS011;566;48.414;9.118;2023-02-25T06:48:06;16.75;;;8.38;;
1154;SDS011;566;48.414;9.118;2023-02-25T06:50:34;21.58;;;10.20;;
1154;SDS011;566;48.414;9.118;2023-02-25T06:53:02;15.25;;;6.90;;
1154;SDS011;566;48.414;9.118;2023-02-25T06:55:28;13.45;;;6.80;;
1154;SDS011;566;48.414;9.118;2023-02-25T06:57:53;16.13;;;7.50;;
1154;SDS011;566;48.414;9.118;2023-02-25T07:00:19;17.90;;;10.00;;
1154;SDS011;566;48.414;9.118;2023-02-25T07:02:48;19.55;;;11.73;;
1154;SDS011;566;48.414;9.118;2023-02-25T07:05:13;18.25;;;8.15;;
1154;SDS011;566;48.414;9.118;2023-02-25T07:07:39;14.38;;;7.72;;
1154;SDS011;566;48.414;9.118;2023-02-25T07:10:05;20.85;;;10.30;;
1154;SDS011;566;48.414;9.118;2023-02-25T07:12:31;18.08;;;7.75;;
1154;SDS011;566;48.414;9.118;2023-02-25T07:14:57;23.23;;;12.85;;
1154;SDS011;566;48.414;9.118;2023-02-25T07:17:23;18.73;;;8.52;;
1154;SDS011;566;48.414;9.118;2023-02-25T07:19:48;21.30;;;9.98;;
1154;SDS011;566;48.414;9.118;2023-02-25T07:22:14;22.33;;;10.77;;
1154;SDS011;566;48.414;9.118;2023-02-25T07:24:42;24.70;;;10.55;;
1154;SDS011;566;48.414;9.118;2023-02-25T07:27:09;28.77;;;12.82;;
1154;SDS011;566;48.414;9.118;2023-02-25T07:29:36;25.67;;;11.43;;
1154;SDS011;566;48.414;9.118;2023-02-25T07:32:02;25.38;;;10.10;;
1154;SDS011;566;48.414;9.118;2023-02-25T07:34:28;22.95;;;9.55;;
1154;SDS011;566;48.414;9.118;2023-02-25T07:36:54;19.67;;;8.77;;
1154;SDS011;566;48.414;9.118;2023-02-25T07:39:19;12.10;;;5.32;;
1154;SDS011;566;48.414;9.118;2023-02-25T07:41:46;49.13;;;20.85;;
1154;SDS011;566;48.414;9.118;2023-02-25T07:44:12;39.42;;;19.65;;
1154;SDS011;566;48.414;9.118;2023-02-25T07:46:37;28.83;;;14.27;;
1154;SDS011;566;48.414;9.118;2023-02-25T07:49:03;25.25;;;11.05;;
1154;SDS011;566;48.414;9.118;2023-02-25T07:51:32;19.58;;;8.32;;
1154;SDS011;566;48.414;9.118;2023-02-25T07:53:57;15.73;;;6.47;;
1154;SDS011;566;48.414;9.118;2023-02-25T07:56:25;19.98;;;9.32;;
1154;SDS011;566;48.414;9.118;2023-02-25T07:58:53;18.02;;;8.38;;
1154;SDS011;566;48.414;9.118;2023-02-25T08:01:26;12.30;;;5.18;;
1154;SDS011;566;48.414;9.118;2023-02-25T08:03:57;10.00;;;4.28;;
1154;SDS011;566;48.414;9.118;2023-02-25T08:06:29;12.75;;;6.13;;
1154;SDS011;566;48.414;9.118;2023-02-25T08:08:56;16.52;;;7.15;;
1154;SDS011;566;48.414;9.118;2023-02-25T08:11:23;21.98;;;8.50;;
1154;SDS011;566;48.414;9.118;2023-02-25T08:13:55;20.08;;;9.23;;
1154;SDS011;566;48.414;9.118;2023-02-25T08:16:20;21.55;;;9.75;;
1154;SDS011;566;48.414;9.118;2023-02-25T08:18:47;19.02;;;6.97;;
1154;SDS011;566;48.414;9.118;2023-02-25T08:21:16;18.52;;;8.60;;
1154;SDS011;566;48.414;9.118;2023-02-25T08:23:42;8.50;;;3.80;;
1154;SDS011;566;48.414;9.118;2023-02-25T08:26:08;10.68;;;3.63;;
1154;SDS011;566;48.414;9.118;2023-02-25T08:28:34;8.52;;;3.15;;
1154;SDS011;566;48.414;9.118;2023-02-25T08:31:00;7.55;;;2.85;;
1154;SDS011;566;48.414;9.118;2023-02-25T08:33:26;10.75;;;3.78;;
1154;SDS011;566;48.414;9.118;2023-02-25T08:35:53;9.88;;;3.35;;
1154;SDS011;566;48.414;9.118;2023-02-25T08:38:19;8.32;;;3.25;;
1154;SDS011;566;48.414;9.118;2023-02-25T08:40:45;8.15;;;3.67;;
1154;SDS011;566;48.414;9.118;2023-02-25T08:43:14;9.10;;;3.45;;
1154;SDS011;566;48.414;9.118;2023-02-25T08:45:40;11.85;;;4.20;;
1154;SDS011;566;48.414;9.118;2023-02-25T08:48:09;6.22;;;2.50;;
1154;SDS011;566;48.414;9.118;2023-02-25T08:50:37;10.00;;;2.72;;
1154;SDS011;566;48.414;9.118;2023-02-25T08:53:03;6.00;;;2.25;;
1154;SDS011;566;48.414;9.118;2023-02-25T08:55:28;12.07;;;3.30;;
1154;SDS011;566;48.414;9.118;2023-02-25T08:57:57;7.85;;;2.90;;
1154;SDS011;566;48.414;9.118;2023-02-25T09:00:23;10.73;;;4.97;;
1154;SDS011;566;48.414;9.118;2023-02-25T09:02:49;5.55;;;2.90;;
1154;SDS011;566;48.414;9.118;2023-02-25T09:05:14;6.88;;;2.45;;
1154;SDS011;566;48.414;9.118;2023-02-25T09:07:40;11.07;;;3.70;;
1154;SDS011;566;48.414;9.118;2023-02-25T09:10:05;8.98;;;3.25;;
1154;SDS011;566;48.414;9.118;2023-02-25T09:12:31;10.02;;;3.53;;
1154;SDS011;566;48.414;9.118;2023-02-25T09:14:57;7.45;;;2.50;;
1154;SDS011;566;48.414;9.118;2023-02-25T09:17:23;7.15;;;2.90;;
1154;SDS011;566;48.414;9.118;2023-02-25T09:19:49;12.05;;;4.70;;
1154;SDS011;566;48.414;9.118;2023-02-25T09:22:14;9.60;;;3.63;;
1154;SDS011;566;48.414;9.118;2023-02-25T09:24:40;7.90;;;2.65;;
1154;SDS011;566;48.414;9.118;2023-02-25T09:27:06;8.95;;;3.33;;
1154;SDS011;566;48.414;9.118;2023-02-25T09:29:35;9.50;;;3.88;;
1154;SDS011;566;48.414;9.118;2023-02-25T09:32:02;12.45;;;4.13;;
1154;SDS011;566;48.414;9.118;2023-02-25T09:34:28;13.05;;;3.67;;
1154;SDS011;566;48.414;9.118;2023-02-25T09:36:54;9.68;;;3.33;;
1154;SDS011;566;48.414;9.118;2023-02-25T09:39:20;14.50;;;4.57;;
1154;SDS011;566;48.414;9.118;2023-02-25T09:42:04;10.02;;;3.47;;
1154;SDS011;566;48.414;9.118;2023-02-25T09:44:50;10.55;;;4.30;;
1154;SDS011;566;48.414;9.118;2023-02-25T09:47:25;15.38;;;7.43;;
1154;SDS011;566;48.414;9.118;2023-02-25T09:52:43;11.85;;;4.40;;
1154;SDS011;566;48.414;9.118;2023-02-25T09:55:22;18.23;;;5.30;;
1154;SDS011;566;48.414;9.118;2023-02-25T09:57:59;12.80;;;5.80;;
1154;SDS011;566;48.414;9.118;2023-02-25T10:00:43;16.63;;;7.40;;
1154;SDS011;566;48.414;9.118;2023-02-25T10:03:21;10.15;;;4.18;;
1154;SDS011;566;48.414;9.118;2023-02-25T10:08:46;16.73;;;6.80;;
1154;SDS011;566;48.414;9.118;2023-02-25T10:14:50;13.85;;;5.32;;
1154;SDS011;566;48.414;9.118;2023-02-25T10:17:19;23.70;;;9.00;;
1154;SDS011;566;48.414;9.118;2023-02-25T10:22:29;13.60;;;7.80;;
1154;SDS011;566;48.414;9.118;2023-02-25T10:25:21;12.60;;;5.78;;
1154;SDS011;566;48.414;9.118;2023-02-25T10:27:52;10.25;;;5.70;;
1154;SDS011;566;48.414;9.118;2023-02-25T10:30:31;14.52;;;5.65;;
1154;SDS011;566;48.414;9.118;2023-02-25T10:33:13;11.63;;;5.68;;
1154;SDS011;566;48.414;9.118;2023-02-25T10:35:44;10.55;;;5.43;;
1154;SDS011;566;48.414;9.118;2023-02-25T10:38:12;10.00;;;4.43;;
1154;SDS011;566;48.414;9.118;2023-02-25T10:40:38;14.60;;;5.82;;
1154;SDS011;566;48.414;9.118;2023-02-25T10:43:23;11.75;;;4.65;;
1154;SDS011;566;48.414;9.118;2023-02-25T10:45:53;8.43;;;3.38;;
1154;SDS011;566;48.414;9.118;2023-02-25T10:48:27;10.82;;;3.55;;
1154;SDS011;566;48.414;9.118;2023-02-25T10:51:00;10.35;;;4.30;;
1154;SDS011;566;48.414;9.118;2023-02-25T10:53:33;9.68;;;4.03;;
1154;SDS011;566;48.414;9.118;2023-02-25T10:55:59;10.57;;;4.28;;
1154;SDS011;566;48.414;9.118;2023-02-25T11:00:57;20.02;;;6.32;;
1154;SDS011;566;48.414;9.118;2023-02-25T11:03:58;12.93;;;5.00;;
1154;SDS011;566;48.414;9.118;2023-02-25T11:06:27;10.10;;;4.13;;
1154;SDS011;566;48.414;9.118;2023-02-25T11:09:02;12.35;;;4.15;;
1154;SDS011;566;48.414;9.118;2023-02-25T11:12:08;9.60;;;4.45;;
1154;SDS011;566;48.414;9.118;2023-02-25T11:14:38;12.20;;;5.35;;
1154;SDS011;566;48.414;9.118;2023-02-25T11:17:14;12.02;;;6.57;;
1154;SDS011;566;48.414;9.118;2023-02-25T11:20:05;7.07;;;3.25;;
1154;SDS011;566;48.414;9.118;2023-02-25T11:22:34;10.15;;;3.42;;
1154;SDS011;566;48.414;9.118;2023-02-25T11:25:06;14.63;;;4.85;;
1154;SDS011;566;48.414;9.118;2023-02-25T11:27:54;6.00;;;2.35;;
1154;SDS011;566;48.414;9.118;2023-02-25T11:30:32;18.45;;;9.93;;
1154;SDS011;566;48.414;9.118;2023-02-25T11:33:07;14.95;;;4.75;;
1154;SDS011;566;48.414;9.118;2023-02-25T11:35:53;17.33;;;8.15;;
1154;SDS011;566;48.414;9.118;2023-02-25T11:38:26;13.55;;;6.05;;
1154;SDS011;566;48.414;9.118;2023-02-25T11:40:55;13.43;;;5.03;;
1154;SDS011;566;48.414;9.118;2023-02-25T11:43:34;26.00;;;9.57;;
1154;SDS011;566;48.414;9.118;2023-02-25T11:46:05;16.55;;;7.25;;
1154;SDS011;566;48.414;9.118;2023-02-25T11:48:49;9.82;;;4.25;;
1154;SDS011;566;48.414;9.118;2023-02-25T11:54:38;11.02;;;3.80;;
1154;SDS011;566;48.414;9.118;2023-02-25T12:05:41;7.55;;;3.40;;
1154;SDS011;566;48.414;9.118;2023-02-25T12:08:14;10.27;;;4.83;;
1154;SDS011;566;48.414;9.118;2023-02-25T12:24:40;9.05;;;4.10;;
1154;SDS011;566;48.414;9.118;2023-02-25T12:29:55;9.02;;;3.50;;
1154;SDS011;566;48.414;9.118;2023-02-25T12:32:55;8.13;;;3.88;;
1154;SDS011;566;48.414;9.118;2023-02-25T12:43:54;8.32;;;2.55;;
1154;SDS011;566;48.414;9.118;2023-02-25T12:46:41;7.95;;;2.97;;
1154;SDS011;566;48.414;9.118;2023-02-25T12:52:29;7.05;;;3.67;;
1154;SDS011;566;48.414;9.118;2023-02-25T12:55:18;12.18;;;5.50;;
1154;SDS011;566;48.414;9.118;2023-02-25T13:03:31;6.88;;;2.45;;
1154;SDS011;566;48.414;9.118;2023-02-25T13:06:28;6.32;;;3.25;;
1154;SDS011;566;48.414;9.118;2023-02-25T13:12:27;5.65;;;2.92;;
1154;SDS011;566;48.414;9.118;2023-02-25T13:15:24;8.07;;;3.50;;
1154;SDS011;566;48.414;9.118;2023-02-25T13:20:57;11.07;;;6.25;;
1154;SDS011;566;48.414;9.118;2023-02-25T13:29:05;14.82;;;6.80;;
1154;SDS011;566;48.414;9.118;2023-02-25T13:34:45;10.20;;;4.22;;
1154;SDS011;566;48.414;9.118;2023-02-25T13:40:39;11.48;;;4.95;;
1154;SDS011;566;48.414;9.118;2023-02-25T13:48:57;8.57;;;3.33;;
1154;SDS011;566;48.414;9.118;2023-02-25T13:51:42;10.60;;;4.70;;
1154;SDS011;566;48.414;9.118;2023-02-25T14:06:01;8.00;;;3.60;;
1154;SDS011;566;48.414;9.118;2023-02-25T14:08:51;7.90;;;4.30;;
1154;SDS011;566;48.414;9.118;2023-02-25T14:11:23;8.18;;;3.28;;
1154;SDS011;566;48.414;9.118;2023-02-25T14:31:21;6.75;;;2.63;;
1154;SDS011;566;48.414;9.118;2023-02-25T14:36:25;9.15;;;3.00;;
1154;SDS011;566;48.414;9.118;2023-02-25T14:47:32;8.20;;;3.63;;
1154;SDS011;566;48.414;9.118;2023-02-25T14:50:06;9.52;;;4.22;;
1154;SDS011;566;48.414;9.118;2023-02-25T15:01:36;12.35;;;4.57;;
1154;SDS011;566;48.414;9.118;2023-02-25T15:16:02;11.23;;;6.05;;
1154;SDS011;566;48.414;9.118;2023-02-25T15:18:57;10.95;;;4.68;;
1154;SDS011;566;48.414;9.118;2023-02-25T15:21:44;19.50;;;8.50;;
1154;SDS011;566;48.414;9.118;2023-02-25T15:24:34;9.85;;;4.68;;
1154;SDS011;566;48.414;9.118;2023-02-25T15:27:49;12.85;;;4.53;;
1154;SDS011;566;48.414;9.118;2023-02-25T15:30:02;10.50;;;4.10;;
1154;SDS011;566;48.414;9.118;2023-02-25T15:38:02;14.10;;;5.70;;
1154;SDS011;566;48.414;9.118;2023-02-25T15:40:41;23.80;;;15.80;;
1154;SDS011;566;48.414;9.118;2023-02-25T15:45:39;12.90;;;5.75;;
1154;SDS011;566;48.414;9.118;2023-02-25T15:55:35;10.32;;;4.95;;
1154;SDS011;566;48.414;9.118;2023-02-25T16:06:00;9.48;;;4.20;;
1154;SDS011;566;48.414;9.118;2023-02-25T16:11:22;8.07;;;4.00;;
1154;SDS011;566;48.414;9.118;2023-02-25T16:14:05;9.27;;;3.65;;
1154;SDS011;566;48.414;9.118;2023-02-25T16:16:51;9.25;;;4.75;;
1154;SDS011;566;48.414;9.118;2023-02-25T16:19:30;13.80;;;7.70;;
1154;SDS011;566;48.414;9.118;2023-02-25T16:22:00;9.93;;;4.25;;
1154;SDS011;566;48.414;9.118;2023-02-25T16:24:34;8.88;;;3.95;;
1154;SDS011;566;48.414;9.118;2023-02-25T16:27:05;7.40;;;4.50;;
1154;SDS011;566;48.414;9.118;2023-02-25T16:38:21;20.63;;;12.05;;
1154;SDS011;566;48.414;9.118;2023-02-25T16:41:10;16.73;;;7.32;;
1154;SDS011;566;48.414;9.118;2023-02-25T16:43:36;18.70;;;8.70;;
1154;SDS011;566;48.414;9.118;2023-02-25T16:46:08;20.05;;;9.05;;
1154;SDS011;566;48.414;9.118;2023-02-25T16:48:58;16.30;;;7.30;;
1154;SDS011;566;48.414;9.118;2023-02-25T16:51:27;22.48;;;14.60;;
1154;SDS011;566;48.414;9.118;2023-02-25T16:53:57;22.33;;;14.50;;
1154;SDS011;566;48.414;9.118;2023-02-25T16:56:27;36.60;;;23.52;;
1154;SDS011;566;48.414;9.118;2023-02-25T17:01:25;29.38;;;17.45;;
1154;SDS011;566;48.414;9.118;2023-02-25T17:03:58;17.45;;;8.70;;
1154;SDS011;566;48.414;9.118;2023-02-25T17:06:26;13.73;;;6.82;;
1154;SDS011;566;48.414;9.118;2023-02-25T17:08:51;23.92;;;16.80;;
1154;SDS011;566;48.414;9.118;2023-02-25T17:11:18;12.82;;;7.38;;
1154;SDS011;566;48.414;9.118;2023-02-25T17:13:46;15.40;;;8.30;;
1154;SDS011;566;48.414;9.118;2023-02-25T17:16:24;25.52;;;14.45;;
1154;SDS011;566;48.414;9.118;2023-02-25T17:18:57;23.13;;;10.60;;
1154;SDS011;566;48.414;9.118;2023-02-25T17:21:30;20.33;;;11.55;;
1154;SDS011;566;48.414;9.118;2023-02-25T17:23:59;14.80;;;6.80;;
1154;SDS011;566;48.414;9.118;2023-02-25T17:26:27;15.48;;;7.40;;
1154;SDS011;566;48.414;9.118;2023-02-25T17:28:54;18.10;;;8.73;;
1154;SDS011;566;48.414;9.118;2023-02-25T17:31:23;19.73;;;8.80;;
1154;SDS011;566;48.414;9.118;2023-02-25T17:34:00;24.08;;;13.40;;
1154;SDS011;566;48.414;9.118;2023-02-25T17:36:31;24.92;;;13.00;;
1154;SDS011;566;48.414;9.118;2023-02-25T17:41:48;13.32;;;6.68;;
1154;SDS011;566;48.414;9.118;2023-02-25T17:47:06;15.35;;;7.25;;
1154;SDS011;566;48.414;9.118;2023-02-25T17:49:36;15.95;;;8.60;;
1154;SDS011;566;48.414;9.118;2023-02-25T17:52:03;12.60;;;6.57;;
1154;SDS011;566;48.414;9.118;2023-02-25T17:54:32;13.45;;;6.40;;
1154;SDS011;566;48.414;9.118;2023-02-25T17:57:01;11.90;;;5.47;;
1154;SDS011;566;48.414;9.118;2023-02-25T18:02:00;14.52;;;6.40;;
1154;SDS011;566;48.414;9.118;2023-02-25T18:04:34;17.27;;;8.10;;
1154;SDS011;566;48.414;9.118;2023-02-25T18:09:58;11.38;;;7.55;;
1154;SDS011;566;48.414;9.118;2023-02-25T18:12:26;11.25;;;5.80;;
1154;SDS011;566;48.414;9.118;2023-02-25T18:14:57;13.13;;;6.75;;
1154;SDS011;566;48.414;9.118;2023-02-25T18:17:39;16.30;;;6.85;;
1154;SDS011;566;48.414;9.118;2023-02-25T18:20:13;13.85;;;7.57;;
1154;SDS011;566;48.414;9.118;2023-02-25T18:22:53;13.25;;;6.90;;
1154;SDS011;566;48.414;9.118;2023-02-25T18:25:35;16.27;;;7.90;;
1154;SDS011;566;48.414;9.118;2023-02-25T18:28:03;31.25;;;16.92;;
1154;SDS011;566;48.414;9.118;2023-02-25T18:30:32;20.67;;;9.27;;
1154;SDS011;566;48.414;9.118;2023-02-25T18:33:00;20.35;;;11.10;;
1154;SDS011;566;48.414;9.118;2023-02-25T18:35:27;18.27;;;8.55;;
1154;SDS011;566;48.414;9.118;2023-02-25T18:37:54;17.50;;;7.70;;
1154;SDS011;566;48.414;9.118;2023-02-25T18:40:26;18.13;;;7.55;;
1154;SDS011;566;48.414;9.118;2023-02-25T18:42:57;14.43;;;6.95;;
1154;SDS011;566;48.414;9.118;2023-02-25T18:45:24;15.38;;;5.60;;
1154;SDS011;566;48.414;9.118;2023-02-25T18:47:51;9.75;;;5.28;;
1154;SDS011;566;48.414;9.118;2023-02-25T18:50:18;11.23;;;5.75;;
1154;SDS011;566;48.414;9.118;2023-02-25T18:52:44;12.20;;;6.32;;
1154;SDS011;566;48.414;9.118;2023-02-25T18:55:15;18.67;;;9.25;;
1154;SDS011;566;48.414;9.118;2023-02-25T18:57:43;9.30;;;6.43;;
1154;SDS011;566;48.414;9.118;2023-02-25T19:00:17;15.07;;;8.23;;